sensor_id;sensor_type;location;lat;lon;timestamp;P1;durP1;ratioP1;P2;durP2;ratioP2
16731;SDS011;8484;50.904;9.192;2022-12-07T00:02:34;11.70;;;8.60;;
16731;SDS011;8484;50.904;9.192;2022-12-07T00:05:21;10.50;;;8.43;;
16731;SDS011;8484;50.904;9.192;2022-12-07T00:08:06;10.13;;;8.33;;
16731;SDS011;8484;50.904;9.192;2022-12-07T00:10:51;13.03;;;8.87;;
16731;SDS011;8484;50.904;9.192;2022-12-07T00:13:37;10.17;;;8.10;;
16731;SDS011;8484;50.904;9.192;2022-12-07T00:16:25;9.87;;;8.40;;
16731;SDS011;8484;50.904;9.192;2022-12-07T00:19:12;9.80;;;8.07;;
16731;SDS011;8484;50.904;9.192;2022-12-07T00:21:59;10.17;;;8.23;;
16731;SDS011;8484;50.904;9.192;2022-12-07T00:24:45;10.13;;;7.90;;
16731;SDS011;8484;50.904;9.192;2022-12-07T00:27:30;10.10;;;7.67;;
16731;SDS011;8484;50.904;9.192;2022-12-07T00:30:16;9.03;;;7.43;;
16731;SDS011;8484;50.904;9.192;2022-12-07T00:33:01;9.10;;;7.73;;
16731;SDS011;8484;50.904;9.192;2022-12-07T00:35:47;11.73;;;8.20;;
16731;SDS011;8484;50.904;9.192;2022-12-07T00:38:41;10.73;;;8.33;;
16731;SDS011;8484;50.904;9.192;2022-12-07T00:41:27;9.97;;;7.70;;
16731;SDS011;8484;50.904;9.192;2022-12-07T00:44:14;9.70;;;7.33;;
16731;SDS011;8484;50.904;9.192;2022-12-07T00:46:59;10.47;;;8.20;;
16731;SDS011;8484;50.904;9.192;2022-12-07T00:49:44;9.77;;;7.57;;
16731;SDS011;8484;50.904;9.192;2022-12-07T00:52:30;10.77;;;8.43;;
16731;SDS011;8484;50.904;9.192;2022-12-07T00:55:17;9.10;;;7.47;;
16731;SDS011;8484;50.904;9.192;2022-12-07T00:58:02;9.80;;;7.63;;
16731;SDS011;8484;50.904;9.192;2022-12-07T01:00:47;11.50;;;8.07;;
16731;SDS011;8484;50.904;9.192;2022-12-07T01:03:33;11.03;;;8.77;;
16731;SDS011;8484;50.904;9.192;2022-12-07T01:06:19;9.87;;;7.93;;
16731;SDS011;8484;50.904;9.192;2022-12-07T01:09:06;10.17;;;7.80;;
16731;SDS011;8484;50.904;9.192;2022-12-07T01:11:53;10.43;;;7.97;;
16731;SDS011;8484;50.904;9.192;2022-12-07T01:14:38;12.27;;;8.50;;
16731;SDS011;8484;50.904;9.192;2022-12-07T01:17:24;10.67;;;7.97;;
16731;SDS011;8484;50.904;9.192;2022-12-07T01:20:09;11.53;;;8.63;;
16731;SDS011;8484;50.904;9.192;2022-12-07T01:22:56;10.27;;;8.70;;
16731;SDS011;8484;50.904;9.192;2022-12-07T01:25:41;14.10;;;9.30;;
16731;SDS011;8484;50.904;9.192;2022-12-07T01:28:28;10.30;;;8.37;;
16731;SDS011;8484;50.904;9.192;2022-12-07T01:31:14;10.93;;;8.90;;
16731;SDS011;8484;50.904;9.192;2022-12-07T01:34:01;11.33;;;9.50;;
16731;SDS011;8484;50.904;9.192;2022-12-07T01:36:47;10.70;;;8.93;;
16731;SDS011;8484;50.904;9.192;2022-12-07T01:39:32;11.90;;;9.37;;
16731;SDS011;8484;50.904;9.192;2022-12-07T01:42:18;13.03;;;9.93;;
16731;SDS011;8484;50.904;9.192;2022-12-07T01:48:26;11.33;;;9.20;;
16731;SDS011;8484;50.904;9.192;2022-12-07T01:51:14;11.30;;;9.30;;
16731;SDS011;8484;50.904;9.192;2022-12-07T01:54:00;13.83;;;10.07;;
16731;SDS011;8484;50.904;9.192;2022-12-07T01:56:47;11.03;;;8.87;;
16731;SDS011;8484;50.904;9.192;2022-12-07T01:59:35;11.03;;;9.10;;
16731;SDS011;8484;50.904;9.192;2022-12-07T02:02:22;12.10;;;9.17;;
16731;SDS011;8484;50.904;9.192;2022-12-07T02:05:19;11.63;;;9.17;;
16731;SDS011;8484;50.904;9.192;2022-12-07T02:08:05;11.60;;;9.87;;
16731;SDS011;8484;50.904;9.192;2022-12-07T02:10:52;12.47;;;9.70;;
16731;SDS011;8484;50.904;9.192;2022-12-07T02:13:38;11.20;;;8.93;;
16731;SDS011;8484;50.904;9.192;2022-12-07T02:16:27;10.77;;;9.63;;
16731;SDS011;8484;50.904;9.192;2022-12-07T02:19:24;11.23;;;9.20;;
16731;SDS011;8484;50.904;9.192;2022-12-07T02:26:26;12.93;;;9.60;;
16731;SDS011;8484;50.904;9.192;2022-12-07T02:29:42;13.13;;;9.53;;
16731;SDS011;8484;50.904;9.192;2022-12-07T02:32:37;12.90;;;9.83;;
16731;SDS011;8484;50.904;9.192;2022-12-07T02:35:28;11.43;;;9.03;;
16731;SDS011;8484;50.904;9.192;2022-12-07T02:38:18;14.73;;;10.37;;
16731;SDS011;8484;50.904;9.192;2022-12-07T02:41:09;12.27;;;9.50;;
16731;SDS011;8484;50.904;9.192;2022-12-07T02:43:58;10.20;;;8.47;;
16731;SDS011;8484;50.904;9.192;2022-12-07T02:46:48;11.67;;;8.50;;
16731;SDS011;8484;50.904;9.192;2022-12-07T02:49:37;10.50;;;8.37;;
16731;SDS011;8484;50.904;9.192;2022-12-07T02:52:24;10.83;;;8.17;;
16731;SDS011;8484;50.904;9.192;2022-12-07T02:55:09;11.70;;;9.20;;
16731;SDS011;8484;50.904;9.192;2022-12-07T02:58:03;9.47;;;8.10;;
16731;SDS011;8484;50.904;9.192;2022-12-07T03:01:00;11.37;;;8.27;;
16731;SDS011;8484;50.904;9.192;2022-12-07T03:03:57;10.30;;;8.70;;
16731;SDS011;8484;50.904;9.192;2022-12-07T03:06:51;10.30;;;8.30;;
16731;SDS011;8484;50.904;9.192;2022-12-07T03:09:45;10.03;;;8.97;;
16731;SDS011;8484;50.904;9.192;2022-12-07T03:12:40;13.40;;;8.53;;
16731;SDS011;8484;50.904;9.192;2022-12-07T03:15:31;9.60;;;8.27;;
16731;SDS011;8484;50.904;9.192;2022-12-07T03:18:21;13.93;;;9.10;;
16731;SDS011;8484;50.904;9.192;2022-12-07T03:21:11;11.30;;;9.40;;
16731;SDS011;8484;50.904;9.192;2022-12-07T03:24:04;12.63;;;9.03;;
16731;SDS011;8484;50.904;9.192;2022-12-07T03:26:55;9.70;;;8.33;;
16731;SDS011;8484;50.904;9.192;2022-12-07T03:29:45;9.97;;;8.57;;
16731;SDS011;8484;50.904;9.192;2022-12-07T03:32:35;10.07;;;8.13;;
16731;SDS011;8484;50.904;9.192;2022-12-07T03:35:25;11.07;;;8.50;;
16731;SDS011;8484;50.904;9.192;2022-12-07T03:38:15;10.90;;;8.43;;
16731;SDS011;8484;50.904;9.192;2022-12-07T03:41:05;10.17;;;8.30;;
16731;SDS011;8484;50.904;9.192;2022-12-07T03:43:53;10.20;;;8.17;;
16731;SDS011;8484;50.904;9.192;2022-12-07T03:46:42;10.40;;;8.57;;
16731;SDS011;8484;50.904;9.192;2022-12-07T03:49:37;10.47;;;8.60;;
16731;SDS011;8484;50.904;9.192;2022-12-07T03:52:26;8.97;;;7.87;;
16731;SDS011;8484;50.904;9.192;2022-12-07T03:55:18;8.97;;;7.80;;
16731;SDS011;8484;50.904;9.192;2022-12-07T03:58:09;10.57;;;7.97;;
16731;SDS011;8484;50.904;9.192;2022-12-07T04:00:57;11.60;;;8.20;;
16731;SDS011;8484;50.904;9.192;2022-12-07T04:03:43;10.83;;;8.53;;
16731;SDS011;8484;50.904;9.192;2022-12-07T04:06:28;10.00;;;7.77;;
16731;SDS011;8484;50.904;9.192;2022-12-07T04:09:14;9.17;;;8.17;;
16731;SDS011;8484;50.904;9.192;2022-12-07T04:12:01;10.53;;;7.70;;
16731;SDS011;8484;50.904;9.192;2022-12-07T04:14:47;9.23;;;8.27;;
16731;SDS011;8484;50.904;9.192;2022-12-07T04:17:33;9.27;;;8.00;;
16731;SDS011;8484;50.904;9.192;2022-12-07T04:20:18;10.43;;;8.47;;
16731;SDS011;8484;50.904;9.192;2022-12-07T04:23:04;9.67;;;7.70;;
16731;SDS011;8484;50.904;9.192;2022-12-07T04:25:49;9.27;;;8.27;;
16731;SDS011;8484;50.904;9.192;2022-12-07T04:28:36;9.90;;;8.80;;
16731;SDS011;8484;50.904;9.192;2022-12-07T04:31:21;9.43;;;8.47;;
16731;SDS011;8484;50.904;9.192;2022-12-07T04:34:07;10.57;;;8.67;;
16731;SDS011;8484;50.904;9.192;2022-12-07T04:36:53;9.87;;;8.37;;
16731;SDS011;8484;50.904;9.192;2022-12-07T04:39:38;8.77;;;7.97;;
16731;SDS011;8484;50.904;9.192;2022-12-07T04:42:24;8.80;;;7.90;;
16731;SDS011;8484;50.904;9.192;2022-12-07T04:45:11;8.93;;;8.03;;
16731;SDS011;8484;50.904;9.192;2022-12-07T04:47:57;9.70;;;8.17;;
16731;SDS011;8484;50.904;9.192;2022-12-07T04:50:42;9.20;;;7.50;;
16731;SDS011;8484;50.904;9.192;2022-12-07T04:53:27;10.03;;;8.60;;
16731;SDS011;8484;50.904;9.192;2022-12-07T04:56:13;10.10;;;9.00;;
16731;SDS011;8484;50.904;9.192;2022-12-07T04:58:59;9.63;;;8.63;;
16731;SDS011;8484;50.904;9.192;2022-12-07T05:01:46;11.07;;;9.13;;
16731;SDS011;8484;50.904;9.192;2022-12-07T05:04:31;9.30;;;8.40;;
16731;SDS011;8484;50.904;9.192;2022-12-07T05:07:17;10.30;;;8.77;;
16731;SDS011;8484;50.904;9.192;2022-12-07T05:10:02;10.10;;;9.10;;
16731;SDS011;8484;50.904;9.192;2022-12-07T05:12:48;10.83;;;9.57;;
16731;SDS011;8484;50.904;9.192;2022-12-07T05:15:34;10.37;;;9.27;;
16731;SDS011;8484;50.904;9.192;2022-12-07T05:18:21;10.00;;;9.00;;
16731;SDS011;8484;50.904;9.192;2022-12-07T05:21:06;11.37;;;9.23;;
16731;SDS011;8484;50.904;9.192;2022-12-07T05:23:52;9.50;;;8.50;;
16731;SDS011;8484;50.904;9.192;2022-12-07T05:26:37;9.77;;;8.77;;
16731;SDS011;8484;50.904;9.192;2022-12-07T05:29:23;10.70;;;9.07;;
16731;SDS011;8484;50.904;9.192;2022-12-07T05:32:09;11.50;;;9.33;;
16731;SDS011;8484;50.904;9.192;2022-12-07T05:34:56;10.47;;;8.57;;
16731;SDS011;8484;50.904;9.192;2022-12-07T05:37:41;10.87;;;9.33;;
16731;SDS011;8484;50.904;9.192;2022-12-07T05:40:27;9.77;;;8.57;;
16731;SDS011;8484;50.904;9.192;2022-12-07T05:43:12;10.30;;;8.90;;
16731;SDS011;8484;50.904;9.192;2022-12-07T05:45:58;9.87;;;8.73;;
16731;SDS011;8484;50.904;9.192;2022-12-07T05:48:43;9.97;;;8.93;;
16731;SDS011;8484;50.904;9.192;2022-12-07T05:51:30;10.03;;;8.97;;
16731;SDS011;8484;50.904;9.192;2022-12-07T05:54:16;10.30;;;9.13;;
16731;SDS011;8484;50.904;9.192;2022-12-07T05:57:01;9.40;;;8.40;;
16731;SDS011;8484;50.904;9.192;2022-12-07T05:59:47;9.23;;;8.33;;
16731;SDS011;8484;50.904;9.192;2022-12-07T06:02:31;10.97;;;8.87;;
16731;SDS011;8484;50.904;9.192;2022-12-07T06:05:17;9.30;;;8.23;;
16731;SDS011;8484;50.904;9.192;2022-12-07T06:08:04;11.17;;;8.53;;
16731;SDS011;8484;50.904;9.192;2022-12-07T06:10:49;8.87;;;7.73;;
16731;SDS011;8484;50.904;9.192;2022-12-07T06:13:55;9.17;;;7.97;;
16731;SDS011;8484;50.904;9.192;2022-12-07T06:16:41;8.53;;;7.63;;
16731;SDS011;8484;50.904;9.192;2022-12-07T06:19:26;8.60;;;7.13;;
16731;SDS011;8484;50.904;9.192;2022-12-07T06:22:12;10.27;;;8.53;;
16731;SDS011;8484;50.904;9.192;2022-12-07T06:25:01;8.90;;;7.67;;
16731;SDS011;8484;50.904;9.192;2022-12-07T06:27:47;9.30;;;8.20;;
16731;SDS011;8484;50.904;9.192;2022-12-07T06:30:32;8.77;;;7.47;;
16731;SDS011;8484;50.904;9.192;2022-12-07T06:33:18;11.70;;;8.80;;
16731;SDS011;8484;50.904;9.192;2022-12-07T06:36:04;9.37;;;8.03;;
16731;SDS011;8484;50.904;9.192;2022-12-07T06:38:50;11.27;;;9.10;;
16731;SDS011;8484;50.904;9.192;2022-12-07T06:41:37;12.27;;;8.97;;
16731;SDS011;8484;50.904;9.192;2022-12-07T06:44:23;9.17;;;8.17;;
16731;SDS011;8484;50.904;9.192;2022-12-07T06:47:08;11.37;;;9.53;;
16731;SDS011;8484;50.904;9.192;2022-12-07T06:49:54;9.90;;;8.13;;
16731;SDS011;8484;50.904;9.192;2022-12-07T06:52:40;9.80;;;8.83;;
16731;SDS011;8484;50.904;9.192;2022-12-07T06:55:25;10.23;;;8.63;;
16731;SDS011;8484;50.904;9.192;2022-12-07T06:58:12;9.70;;;8.63;;
16731;SDS011;8484;50.904;9.192;2022-12-07T07:00:57;9.67;;;8.67;;
16731;SDS011;8484;50.904;9.192;2022-12-07T07:03:43;12.00;;;9.33;;
16731;SDS011;8484;50.904;9.192;2022-12-07T07:06:29;9.27;;;8.33;;
16731;SDS011;8484;50.904;9.192;2022-12-07T07:09:15;11.03;;;9.90;;
16731;SDS011;8484;50.904;9.192;2022-12-07T07:12:00;12.50;;;9.90;;
16731;SDS011;8484;50.904;9.192;2022-12-07T07:14:47;12.13;;;9.70;;
16731;SDS011;8484;50.904;9.192;2022-12-07T07:17:33;10.87;;;9.70;;
16731;SDS011;8484;50.904;9.192;2022-12-07T07:20:19;16.63;;;10.27;;
16731;SDS011;8484;50.904;9.192;2022-12-07T07:23:04;11.67;;;9.80;;
16731;SDS011;8484;50.904;9.192;2022-12-07T07:25:50;13.50;;;10.90;;
16731;SDS011;8484;50.904;9.192;2022-12-07T07:28:36;10.47;;;9.30;;
16731;SDS011;8484;50.904;9.192;2022-12-07T07:31:23;12.20;;;9.77;;
16731;SDS011;8484;50.904;9.192;2022-12-07T07:34:09;10.93;;;9.40;;
16731;SDS011;8484;50.904;9.192;2022-12-07T07:36:54;11.13;;;9.10;;
16731;SDS011;8484;50.904;9.192;2022-12-07T07:39:40;11.70;;;9.83;;
16731;SDS011;8484;50.904;9.192;2022-12-07T07:42:25;10.67;;;9.57;;
16731;SDS011;8484;50.904;9.192;2022-12-07T07:45:11;11.63;;;9.17;;
16731;SDS011;8484;50.904;9.192;2022-12-07T07:47:58;10.87;;;9.10;;
16731;SDS011;8484;50.904;9.192;2022-12-07T07:50:43;9.67;;;8.67;;
16731;SDS011;8484;50.904;9.192;2022-12-07T07:53:29;10.63;;;8.97;;
16731;SDS011;8484;50.904;9.192;2022-12-07T07:56:14;10.57;;;8.30;;
16731;SDS011;8484;50.904;9.192;2022-12-07T07:59:00;11.10;;;8.30;;
16731;SDS011;8484;50.904;9.192;2022-12-07T08:01:46;10.43;;;8.90;;
16731;SDS011;8484;50.904;9.192;2022-12-07T08:04:32;10.70;;;8.63;;
16731;SDS011;8484;50.904;9.192;2022-12-07T08:07:18;11.17;;;8.30;;
16731;SDS011;8484;50.904;9.192;2022-12-07T08:10:04;10.53;;;8.80;;
16731;SDS011;8484;50.904;9.192;2022-12-07T08:12:50;9.93;;;8.27;;
16731;SDS011;8484;50.904;9.192;2022-12-07T08:15:53;9.97;;;8.20;;
16731;SDS011;8484;50.904;9.192;2022-12-07T08:18:39;9.70;;;8.10;;
16731;SDS011;8484;50.904;9.192;2022-12-07T08:21:27;9.60;;;8.23;;
16731;SDS011;8484;50.904;9.192;2022-12-07T08:24:12;10.43;;;7.97;;
16731;SDS011;8484;50.904;9.192;2022-12-07T08:26:58;9.80;;;7.80;;
16731;SDS011;8484;50.904;9.192;2022-12-07T08:29:43;10.10;;;8.27;;
16731;SDS011;8484;50.904;9.192;2022-12-07T08:32:29;10.43;;;8.73;;
16731;SDS011;8484;50.904;9.192;2022-12-07T08:35:14;15.80;;;10.33;;
16731;SDS011;8484;50.904;9.192;2022-12-07T08:38:02;10.40;;;8.27;;
16731;SDS011;8484;50.904;9.192;2022-12-07T08:40:53;5.73;;;5.23;;
16731;SDS011;8484;50.904;9.192;2022-12-07T08:43:38;4.87;;;4.40;;
16731;SDS011;8484;50.904;9.192;2022-12-07T08:46:24;4.87;;;4.37;;
16731;SDS011;8484;50.904;9.192;2022-12-07T08:49:17;5.33;;;4.90;;
16731;SDS011;8484;50.904;9.192;2022-12-07T08:52:05;5.77;;;3.83;;
16731;SDS011;8484;50.904;9.192;2022-12-07T08:54:52;4.43;;;4.03;;
16731;SDS011;8484;50.904;9.192;2022-12-07T08:57:37;4.80;;;4.40;;
16731;SDS011;8484;50.904;9.192;2022-12-07T09:00:24;4.90;;;4.50;;
16731;SDS011;8484;50.904;9.192;2022-12-07T09:03:10;4.70;;;4.30;;
16731;SDS011;8484;50.904;9.192;2022-12-07T09:05:55;6.53;;;3.97;;
16731;SDS011;8484;50.904;9.192;2022-12-07T09:08:42;4.60;;;4.20;;
16731;SDS011;8484;50.904;9.192;2022-12-07T09:11:32;5.03;;;4.50;;
16731;SDS011;8484;50.904;9.192;2022-12-07T09:14:17;4.90;;;4.20;;
16731;SDS011;8484;50.904;9.192;2022-12-07T09:17:06;4.70;;;4.30;;
16731;SDS011;8484;50.904;9.192;2022-12-07T09:19:52;4.50;;;4.10;;
16731;SDS011;8484;50.904;9.192;2022-12-07T09:22:38;4.93;;;4.10;;
16731;SDS011;8484;50.904;9.192;2022-12-07T09:25:24;7.40;;;3.87;;
16731;SDS011;8484;50.904;9.192;2022-12-07T09:28:11;4.60;;;4.00;;
16731;SDS011;8484;50.904;9.192;2022-12-07T09:30:57;4.90;;;4.03;;
16731;SDS011;8484;50.904;9.192;2022-12-07T09:33:42;3.97;;;3.57;;
16731;SDS011;8484;50.904;9.192;2022-12-07T09:36:28;4.60;;;4.20;;
16731;SDS011;8484;50.904;9.192;2022-12-07T09:39:14;5.07;;;3.97;;
16731;SDS011;8484;50.904;9.192;2022-12-07T09:41:59;4.53;;;4.10;;
16731;SDS011;8484;50.904;9.192;2022-12-07T09:44:49;4.47;;;3.93;;
16731;SDS011;8484;50.904;9.192;2022-12-07T09:47:34;4.27;;;3.87;;
16731;SDS011;8484;50.904;9.192;2022-12-07T09:50:21;3.67;;;3.37;;
16731;SDS011;8484;50.904;9.192;2022-12-07T09:53:10;3.80;;;3.50;;
16731;SDS011;8484;50.904;9.192;2022-12-07T09:55:59;4.60;;;4.20;;
16731;SDS011;8484;50.904;9.192;2022-12-07T09:58:45;4.97;;;3.53;;
16731;SDS011;8484;50.904;9.192;2022-12-07T10:01:33;4.07;;;3.67;;
16731;SDS011;8484;50.904;9.192;2022-12-07T10:04:19;3.43;;;3.20;;
16731;SDS011;8484;50.904;9.192;2022-12-07T10:07:06;4.20;;;3.90;;
16731;SDS011;8484;50.904;9.192;2022-12-07T10:09:51;4.50;;;4.20;;
16731;SDS011;8484;50.904;9.192;2022-12-07T10:12:44;4.90;;;3.73;;
16731;SDS011;8484;50.904;9.192;2022-12-07T10:15:43;4.03;;;3.73;;
16731;SDS011;8484;50.904;9.192;2022-12-07T10:18:36;3.50;;;3.27;;
16731;SDS011;8484;50.904;9.192;2022-12-07T10:21:22;5.00;;;4.50;;
16731;SDS011;8484;50.904;9.192;2022-12-07T10:24:13;4.83;;;4.43;;
16731;SDS011;8484;50.904;9.192;2022-12-07T10:26:59;4.20;;;3.90;;
16731;SDS011;8484;50.904;9.192;2022-12-07T10:29:47;4.60;;;4.20;;
16731;SDS011;8484;50.904;9.192;2022-12-07T10:32:35;5.37;;;4.37;;
16731;SDS011;8484;50.904;9.192;2022-12-07T10:35:24;4.83;;;4.30;;
16731;SDS011;8484;50.904;9.192;2022-12-07T10:38:15;5.70;;;4.07;;
16731;SDS011;8484;50.904;9.192;2022-12-07T10:41:05;4.50;;;4.10;;
16731;SDS011;8484;50.904;9.192;2022-12-07T10:43:54;3.90;;;3.50;;
16731;SDS011;8484;50.904;9.192;2022-12-07T10:46:50;3.37;;;3.07;;
16731;SDS011;8484;50.904;9.192;2022-12-07T10:53:09;4.30;;;3.67;;
16731;SDS011;8484;50.904;9.192;2022-12-07T10:59:20;3.30;;;2.93;;
16731;SDS011;8484;50.904;9.192;2022-12-07T11:02:29;3.33;;;3.03;;
16731;SDS011;8484;50.904;9.192;2022-12-07T11:05:26;3.57;;;3.27;;
16731;SDS011;8484;50.904;9.192;2022-12-07T11:08:18;3.57;;;3.27;;
16731;SDS011;8484;50.904;9.192;2022-12-07T11:11:15;3.40;;;3.10;;
16731;SDS011;8484;50.904;9.192;2022-12-07T11:14:12;3.87;;;3.13;;
16731;SDS011;8484;50.904;9.192;2022-12-07T11:17:07;3.30;;;3.00;;
16731;SDS011;8484;50.904;9.192;2022-12-07T11:20:00;4.90;;;3.83;;
16731;SDS011;8484;50.904;9.192;2022-12-07T11:22:58;4.43;;;4.03;;
16731;SDS011;8484;50.904;9.192;2022-12-07T11:25:53;3.63;;;3.33;;
16731;SDS011;8484;50.904;9.192;2022-12-07T11:28:50;4.20;;;3.07;;
16731;SDS011;8484;50.904;9.192;2022-12-07T11:31:51;4.07;;;3.23;;
16731;SDS011;8484;50.904;9.192;2022-12-07T11:34:52;3.70;;;3.40;;
16731;SDS011;8484;50.904;9.192;2022-12-07T11:37:47;3.23;;;2.90;;
16731;SDS011;8484;50.904;9.192;2022-12-07T11:40:36;3.10;;;2.90;;
16731;SDS011;8484;50.904;9.192;2022-12-07T11:43:25;4.07;;;3.30;;
16731;SDS011;8484;50.904;9.192;2022-12-07T11:46:14;4.20;;;3.20;;
16731;SDS011;8484;50.904;9.192;2022-12-07T11:49:02;3.43;;;2.60;;
16731;SDS011;8484;50.904;9.192;2022-12-07T11:51:53;5.67;;;3.53;;
16731;SDS011;8484;50.904;9.192;2022-12-07T11:54:44;3.00;;;2.67;;
16731;SDS011;8484;50.904;9.192;2022-12-07T11:57:32;5.73;;;3.03;;
16731;SDS011;8484;50.904;9.192;2022-12-07T12:00:25;2.60;;;2.40;;
16731;SDS011;8484;50.904;9.192;2022-12-07T12:03:11;4.03;;;2.70;;
16731;SDS011;8484;50.904;9.192;2022-12-07T12:06:00;2.27;;;2.10;;
16731;SDS011;8484;50.904;9.192;2022-12-07T12:08:46;3.30;;;3.03;;
16731;SDS011;8484;50.904;9.192;2022-12-07T12:11:41;2.97;;;2.20;;
16731;SDS011;8484;50.904;9.192;2022-12-07T12:14:48;2.20;;;2.00;;
16731;SDS011;8484;50.904;9.192;2022-12-07T12:17:52;2.30;;;2.10;;
16731;SDS011;8484;50.904;9.192;2022-12-07T12:21:01;4.10;;;3.80;;
16731;SDS011;8484;50.904;9.192;2022-12-07T12:23:51;3.60;;;2.90;;
16731;SDS011;8484;50.904;9.192;2022-12-07T12:26:48;3.50;;;3.20;;
16731;SDS011;8484;50.904;9.192;2022-12-07T12:29:35;3.07;;;2.40;;
16731;SDS011;8484;50.904;9.192;2022-12-07T12:32:24;2.93;;;2.73;;
16731;SDS011;8484;50.904;9.192;2022-12-07T12:35:26;3.23;;;3.03;;
16731;SDS011;8484;50.904;9.192;2022-12-07T12:38:24;3.57;;;3.37;;
16731;SDS011;8484;50.904;9.192;2022-12-07T12:41:16;3.80;;;3.10;;
16731;SDS011;8484;50.904;9.192;2022-12-07T12:48:36;3.30;;;3.00;;
16731;SDS011;8484;50.904;9.192;2022-12-07T12:51:39;3.30;;;3.00;;
16731;SDS011;8484;50.904;9.192;2022-12-07T12:54:26;3.07;;;2.70;;
16731;SDS011;8484;50.904;9.192;2022-12-07T12:57:13;3.07;;;2.87;;
16731;SDS011;8484;50.904;9.192;2022-12-07T13:00:15;3.03;;;2.73;;
16731;SDS011;8484;50.904;9.192;2022-12-07T13:03:02;3.07;;;2.77;;
16731;SDS011;8484;50.904;9.192;2022-12-07T13:05:47;2.43;;;2.30;;
16731;SDS011;8484;50.904;9.192;2022-12-07T13:08:34;2.90;;;2.67;;
16731;SDS011;8484;50.904;9.192;2022-12-07T13:11:27;2.93;;;2.73;;
16731;SDS011;8484;50.904;9.192;2022-12-07T13:14:38;2.80;;;2.60;;
16731;SDS011;8484;50.904;9.192;2022-12-07T13:17:57;4.03;;;3.07;;
16731;SDS011;8484;50.904;9.192;2022-12-07T13:20:51;2.63;;;2.43;;
16731;SDS011;8484;50.904;9.192;2022-12-07T13:23:51;3.23;;;2.20;;
16731;SDS011;8484;50.904;9.192;2022-12-07T13:26:41;2.20;;;2.10;;
16731;SDS011;8484;50.904;9.192;2022-12-07T13:29:29;3.57;;;2.50;;
16731;SDS011;8484;50.904;9.192;2022-12-07T13:32:23;2.60;;;2.40;;
16731;SDS011;8484;50.904;9.192;2022-12-07T13:38:17;2.27;;;2.10;;
16731;SDS011;8484;50.904;9.192;2022-12-07T13:41:13;3.37;;;2.23;;
16731;SDS011;8484;50.904;9.192;2022-12-07T13:44:02;4.17;;;2.80;;
16731;SDS011;8484;50.904;9.192;2022-12-07T13:46:57;3.23;;;2.43;;
16731;SDS011;8484;50.904;9.192;2022-12-07T13:49:47;2.73;;;2.50;;
16731;SDS011;8484;50.904;9.192;2022-12-07T13:52:33;4.80;;;3.27;;
16731;SDS011;8484;50.904;9.192;2022-12-07T13:55:29;3.77;;;2.97;;
16731;SDS011;8484;50.904;9.192;2022-12-07T13:58:16;3.03;;;2.63;;
16731;SDS011;8484;50.904;9.192;2022-12-07T14:01:01;2.70;;;2.50;;
16731;SDS011;8484;50.904;9.192;2022-12-07T14:03:47;3.20;;;2.60;;
16731;SDS011;8484;50.904;9.192;2022-12-07T14:06:32;2.60;;;2.40;;
16731;SDS011;8484;50.904;9.192;2022-12-07T14:09:18;3.73;;;2.53;;
16731;SDS011;8484;50.904;9.192;2022-12-07T14:12:05;3.13;;;2.80;;
16731;SDS011;8484;50.904;9.192;2022-12-07T14:14:53;3.43;;;2.60;;
16731;SDS011;8484;50.904;9.192;2022-12-07T14:17:49;5.20;;;2.67;;
16731;SDS011;8484;50.904;9.192;2022-12-07T14:20:36;3.97;;;3.10;;
16731;SDS011;8484;50.904;9.192;2022-12-07T14:23:25;3.10;;;2.90;;
16731;SDS011;8484;50.904;9.192;2022-12-07T14:26:12;3.33;;;3.00;;
16731;SDS011;8484;50.904;9.192;2022-12-07T14:32:23;5.97;;;2.77;;
16731;SDS011;8484;50.904;9.192;2022-12-07T14:35:13;3.30;;;3.00;;
16731;SDS011;8484;50.904;9.192;2022-12-07T14:38:00;5.53;;;2.87;;
16731;SDS011;8484;50.904;9.192;2022-12-07T14:40:45;3.00;;;2.80;;
16731;SDS011;8484;50.904;9.192;2022-12-07T14:43:31;3.40;;;2.87;;
16731;SDS011;8484;50.904;9.192;2022-12-07T14:46:16;3.30;;;2.93;;
16731;SDS011;8484;50.904;9.192;2022-12-07T14:49:03;3.37;;;3.07;;
16731;SDS011;8484;50.904;9.192;2022-12-07T14:51:48;3.90;;;3.00;;
16731;SDS011;8484;50.904;9.192;2022-12-07T14:54:34;3.63;;;3.07;;
16731;SDS011;8484;50.904;9.192;2022-12-07T14:57:19;3.00;;;2.73;;
16731;SDS011;8484;50.904;9.192;2022-12-07T15:00:05;3.10;;;2.90;;
16731;SDS011;8484;50.904;9.192;2022-12-07T15:02:52;3.47;;;3.17;;
16731;SDS011;8484;50.904;9.192;2022-12-07T15:05:39;3.77;;;3.47;;
16731;SDS011;8484;50.904;9.192;2022-12-07T15:08:25;4.10;;;3.70;;
16731;SDS011;8484;50.904;9.192;2022-12-07T15:11:11;4.50;;;4.10;;
16731;SDS011;8484;50.904;9.192;2022-12-07T15:13:58;4.20;;;3.83;;
16731;SDS011;8484;50.904;9.192;2022-12-07T15:16:54;5.50;;;3.90;;
16731;SDS011;8484;50.904;9.192;2022-12-07T15:19:39;7.70;;;4.47;;
16731;SDS011;8484;50.904;9.192;2022-12-07T15:22:27;6.73;;;5.30;;
16731;SDS011;8484;50.904;9.192;2022-12-07T15:25:13;7.83;;;5.03;;
16731;SDS011;8484;50.904;9.192;2022-12-07T15:27:59;11.73;;;4.67;;
16731;SDS011;8484;50.904;9.192;2022-12-07T15:30:44;5.90;;;4.23;;
16731;SDS011;8484;50.904;9.192;2022-12-07T15:33:30;5.00;;;4.47;;
16731;SDS011;8484;50.904;9.192;2022-12-07T15:36:17;4.23;;;3.93;;
16731;SDS011;8484;50.904;9.192;2022-12-07T15:39:07;4.60;;;4.20;;
16731;SDS011;8484;50.904;9.192;2022-12-07T15:41:53;5.10;;;4.60;;
16731;SDS011;8484;50.904;9.192;2022-12-07T15:44:38;5.70;;;4.60;;
16731;SDS011;8484;50.904;9.192;2022-12-07T15:47:42;13.90;;;11.53;;
16731;SDS011;8484;50.904;9.192;2022-12-07T15:50:28;28.37;;;18.73;;
16731;SDS011;8484;50.904;9.192;2022-12-07T15:53:14;23.17;;;16.90;;
16731;SDS011;8484;50.904;9.192;2022-12-07T15:56:01;8.10;;;7.07;;
16731;SDS011;8484;50.904;9.192;2022-12-07T15:58:49;5.77;;;4.63;;
16731;SDS011;8484;50.904;9.192;2022-12-07T16:01:35;5.67;;;4.67;;
16731;SDS011;8484;50.904;9.192;2022-12-07T16:04:20;5.27;;;4.87;;
16731;SDS011;8484;50.904;9.192;2022-12-07T16:07:06;4.67;;;4.27;;
16731;SDS011;8484;50.904;9.192;2022-12-07T16:09:54;5.50;;;5.00;;
16731;SDS011;8484;50.904;9.192;2022-12-07T16:12:41;4.77;;;4.17;;
16731;SDS011;8484;50.904;9.192;2022-12-07T16:15:26;5.03;;;3.77;;
16731;SDS011;8484;50.904;9.192;2022-12-07T16:18:12;4.33;;;3.63;;
16731;SDS011;8484;50.904;9.192;2022-12-07T16:20:57;4.90;;;3.80;;
16731;SDS011;8484;50.904;9.192;2022-12-07T16:23:43;3.83;;;3.53;;
16731;SDS011;8484;50.904;9.192;2022-12-07T16:26:28;4.27;;;3.97;;
16731;SDS011;8484;50.904;9.192;2022-12-07T16:29:15;4.50;;;4.10;;
16731;SDS011;8484;50.904;9.192;2022-12-07T16:32:01;5.60;;;4.13;;
16731;SDS011;8484;50.904;9.192;2022-12-07T16:34:47;4.30;;;4.00;;
16731;SDS011;8484;50.904;9.192;2022-12-07T16:37:33;4.60;;;4.10;;
16731;SDS011;8484;50.904;9.192;2022-12-07T16:40:19;4.53;;;4.23;;
16731;SDS011;8484;50.904;9.192;2022-12-07T16:43:05;8.13;;;7.43;;
16731;SDS011;8484;50.904;9.192;2022-12-07T16:45:52;9.47;;;8.43;;
16731;SDS011;8484;50.904;9.192;2022-12-07T16:48:40;10.63;;;9.63;;
16731;SDS011;8484;50.904;9.192;2022-12-07T16:51:25;9.37;;;7.37;;
16731;SDS011;8484;50.904;9.192;2022-12-07T16:54:12;8.23;;;6.40;;
16731;SDS011;8484;50.904;9.192;2022-12-07T16:56:57;6.00;;;5.40;;
16731;SDS011;8484;50.904;9.192;2022-12-07T16:59:43;5.23;;;4.73;;
16731;SDS011;8484;50.904;9.192;2022-12-07T17:02:30;5.30;;;4.70;;
16731;SDS011;8484;50.904;9.192;2022-12-07T17:05:15;8.47;;;6.40;;
16731;SDS011;8484;50.904;9.192;2022-12-07T17:08:01;6.23;;;5.70;;
16731;SDS011;8484;50.904;9.192;2022-12-07T17:10:47;5.10;;;4.70;;
16731;SDS011;8484;50.904;9.192;2022-12-07T17:13:32;7.70;;;4.97;;
16731;SDS011;8484;50.904;9.192;2022-12-07T17:16:36;5.40;;;4.90;;
16731;SDS011;8484;50.904;9.192;2022-12-07T17:19:23;5.30;;;4.80;;
16731;SDS011;8484;50.904;9.192;2022-12-07T17:22:09;6.37;;;5.07;;
16731;SDS011;8484;50.904;9.192;2022-12-07T17:24:56;4.80;;;4.50;;
16731;SDS011;8484;50.904;9.192;2022-12-07T17:27:41;6.10;;;5.50;;
16731;SDS011;8484;50.904;9.192;2022-12-07T17:30:27;5.53;;;5.03;;